sensor_id;sensor_type;location;lat;lon;timestamp;temperature;humidity
27276;DHT22;14772;47.398;8.080;2022-09-20T00:01:45;12.50;99.90
27276;DHT22;14772;47.398;8.080;2022-09-20T00:06:43;12.50;99.90
27276;DHT22;14772;47.398;8.080;2022-09-20T00:11:42;12.40;99.90
27276;DHT22;14772;47.398;8.080;2022-09-20T00:16:40;12.40;99.90
27276;DHT22;14772;47.398;8.080;2022-09-20T00:21:38;12.30;99.90
27276;DHT22;14772;47.398;8.080;2022-09-20T00:26:36;12.20;99.90
27276;DHT22;14772;47.398;8.080;2022-09-20T00:31:33;12.20;99.90
27276;DHT22;14772;47.398;8.080;2022-09-20T00:36:31;12.20;99.90
27276;DHT22;14772;47.398;8.080;2022-09-20T00:41:30;12.10;99.90
27276;DHT22;14772;47.398;8.080;2022-09-20T00:46:32;12.00;99.90
27276;DHT22;14772;47.398;8.080;2022-09-20T00:51:31;12.00;99.90
27276;DHT22;14772;47.398;8.080;2022-09-20T00:56:31;11.90;99.90
27276;DHT22;14772;47.398;8.080;2022-09-20T01:01:29;11.80;99.90
27276;DHT22;14772;47.398;8.080;2022-09-20T01:06:27;11.80;99.90
27276;DHT22;14772;47.398;8.080;2022-09-20T01:11:25;11.60;99.90
27276;DHT22;14772;47.398;8.080;2022-09-20T01:16:24;11.60;99.90
27276;DHT22;14772;47.398;8.080;2022-09-20T01:21:23;11.50;99.90
27276;DHT22;14772;47.398;8.080;2022-09-20T01:31:59;11.40;99.90
27276;DHT22;14772;47.398;8.080;2022-09-20T01:37:00;11.40;99.90
27276;DHT22;14772;47.398;8.080;2022-09-20T01:42:01;11.30;99.90
27276;DHT22;14772;47.398;8.080;2022-09-20T01:47:02;11.30;99.90
27276;DHT22;14772;47.398;8.080;2022-09-20T01:52:30;11.30;99.90
27276;DHT22;14772;47.398;8.080;2022-09-20T02:08:59;11.10;99.90
27276;DHT22;14772;47.398;8.080;2022-09-20T02:14:15;11.00;99.90
27276;DHT22;14772;47.398;8.080;2022-09-20T02:19:40;11.00;99.90
27276;DHT22;14772;47.398;8.080;2022-09-20T02:24:43;11.00;99.90
27276;DHT22;14772;47.398;8.080;2022-09-20T02:29:45;11.00;99.90
27276;DHT22;14772;47.398;8.080;2022-09-20T02:35:00;11.00;99.90
27276;DHT22;14772;47.398;8.080;2022-09-20T02:40:02;10.90;99.90
27276;DHT22;14772;47.398;8.080;2022-09-20T02:50:25;10.80;99.90
27276;DHT22;14772;47.398;8.080;2022-09-20T02:55:29;10.70;99.90
27276;DHT22;14772;47.398;8.080;2022-09-20T03:00:28;10.70;99.90
27276;DHT22;14772;47.398;8.080;2022-09-20T03:05:30;10.70;99.90
27276;DHT22;14772;47.398;8.080;2022-09-20T03:10:33;10.70;99.90
27276;DHT22;14772;47.398;8.080;2022-09-20T03:15:36;10.70;99.90
27276;DHT22;14772;47.398;8.080;2022-09-20T03:20:38;10.70;99.90
27276;DHT22;14772;47.398;8.080;2022-09-20T03:25:46;10.60;99.90
27276;DHT22;14772;47.398;8.080;2022-09-20T03:30:53;10.60;99.90
27276;DHT22;14772;47.398;8.080;2022-09-20T03:35:57;10.60;99.90
27276;DHT22;14772;47.398;8.080;2022-09-20T03:41:21;10.50;99.90
27276;DHT22;14772;47.398;8.080;2022-09-20T03:46:23;10.30;99.90
27276;DHT22;14772;47.398;8.080;2022-09-20T03:51:26;10.30;99.90
27276;DHT22;14772;47.398;8.080;2022-09-20T04:02:16;10.30;99.90
27276;DHT22;14772;47.398;8.080;2022-09-20T04:07:17;10.30;99.90
27276;DHT22;14772;47.398;8.080;2022-09-20T04:12:21;10.30;99.90
27276;DHT22;14772;47.398;8.080;2022-09-20T04:17:26;10.30;99.90
27276;DHT22;14772;47.398;8.080;2022-09-20T04:22:25;10.20;99.90
27276;DHT22;14772;47.398;8.080;2022-09-20T04:27:27;10.20;99.90
27276;DHT22;14772;47.398;8.080;2022-09-20T04:32:27;10.20;99.90
27276;DHT22;14772;47.398;8.080;2022-09-20T04:37:29;10.10;99.90
27276;DHT22;14772;47.398;8.080;2022-09-20T04:48:51;10.00;99.90
27276;DHT22;14772;47.398;8.080;2022-09-20T04:54:21;10.00;99.90
27276;DHT22;14772;47.398;8.080;2022-09-20T04:59:23;9.90;99.90
27276;DHT22;14772;47.398;8.080;2022-09-20T05:10:29;9.90;99.90
27276;DHT22;14772;47.398;8.080;2022-09-20T05:15:38;9.80;99.90
27276;DHT22;14772;47.398;8.080;2022-09-20T05:20:47;9.80;99.90
27276;DHT22;14772;47.398;8.080;2022-09-20T05:25:57;9.90;99.90
27276;DHT22;14772;47.398;8.080;2022-09-20T05:30:58;9.80;99.90
27276;DHT22;14772;47.398;8.080;2022-09-20T05:36:05;9.40;99.90
27276;DHT22;14772;47.398;8.080;2022-09-20T05:41:09;9.60;99.90
27276;DHT22;14772;47.398;8.080;2022-09-20T05:46:14;9.70;99.90
27276;DHT22;14772;47.398;8.080;2022-09-20T05:51:19;9.70;99.90
27276;DHT22;14772;47.398;8.080;2022-09-20T05:56:23;9.80;99.90
27276;DHT22;14772;47.398;8.080;2022-09-20T06:01:23;9.90;99.90
27276;DHT22;14772;47.398;8.080;2022-09-20T06:06:25;9.90;99.90
27276;DHT22;14772;47.398;8.080;2022-09-20T06:11:45;10.00;99.90
27276;DHT22;14772;47.398;8.080;2022-09-20T06:21:54;9.80;99.90
27276;DHT22;14772;47.398;8.080;2022-09-20T06:26:54;9.90;99.90
27276;DHT22;14772;47.398;8.080;2022-09-20T06:31:53;10.20;99.90
27276;DHT22;14772;47.398;8.080;2022-09-20T06:36:55;10.30;99.90
27276;DHT22;14772;47.398;8.080;2022-09-20T06:41:53;10.30;99.90
27276;DHT22;14772;47.398;8.080;2022-09-20T06:46:50;10.30;99.90
27276;DHT22;14772;47.398;8.080;2022-09-20T06:51:48;10.10;99.90
27276;DHT22;14772;47.398;8.080;2022-09-20T06:56:47;10.30;99.90
27276;DHT22;14772;47.398;8.080;2022-09-20T07:01:45;10.40;99.90
27276;DHT22;14772;47.398;8.080;2022-09-20T07:06:42;10.70;99.90
27276;DHT22;14772;47.398;8.080;2022-09-20T07:11:39;10.90;99.90
27276;DHT22;14772;47.398;8.080;2022-09-20T07:16:37;11.10;99.90
27276;DHT22;14772;47.398;8.080;2022-09-20T07:21:34;11.00;99.90
27276;DHT22;14772;47.398;8.080;2022-09-20T07:26:31;11.20;99.90
27276;DHT22;14772;47.398;8.080;2022-09-20T07:31:29;11.40;99.90
27276;DHT22;14772;47.398;8.080;2022-09-20T07:36:26;11.60;99.90
27276;DHT22;14772;47.398;8.080;2022-09-20T07:41:24;11.70;99.90
27276;DHT22;14772;47.398;8.080;2022-09-20T07:46:21;11.90;99.90
27276;DHT22;14772;47.398;8.080;2022-09-20T07:51:18;11.50;99.90
27276;DHT22;14772;47.398;8.080;2022-09-20T07:56:16;12.00;99.90
27276;DHT22;14772;47.398;8.080;2022-09-20T08:01:13;12.20;99.90
27276;DHT22;14772;47.398;8.080;2022-09-20T08:06:11;12.40;99.90
27276;DHT22;14772;47.398;8.080;2022-09-20T08:11:10;12.50;99.90
27276;DHT22;14772;47.398;8.080;2022-09-20T08:16:09;12.70;99.90
27276;DHT22;14772;47.398;8.080;2022-09-20T08:21:08;12.80;99.90
27276;DHT22;14772;47.398;8.080;2022-09-20T08:26:07;13.00;99.90
27276;DHT22;14772;47.398;8.080;2022-09-20T08:31:07;13.00;99.90
27276;DHT22;14772;47.398;8.080;2022-09-20T08:36:05;13.20;99.90
27276;DHT22;14772;47.398;8.080;2022-09-20T08:41:04;13.40;99.90
27276;DHT22;14772;47.398;8.080;2022-09-20T08:46:05;13.50;99.90
27276;DHT22;14772;47.398;8.080;2022-09-20T08:51:04;13.60;99.90
27276;DHT22;14772;47.398;8.080;2022-09-20T08:56:01;13.50;99.90
27276;DHT22;14772;47.398;8.080;2022-09-20T09:00:59;13.60;99.90
27276;DHT22;14772;47.398;8.080;2022-09-20T09:05:56;13.80;99.90
27276;DHT22;14772;47.398;8.080;2022-09-20T09:10:54;14.10;99.90
27276;DHT22;14772;47.398;8.080;2022-09-20T09:15:56;14.20;99.90
27276;DHT22;14772;47.398;8.080;2022-09-20T09:20:54;14.30;99.90
27276;DHT22;14772;47.398;8.080;2022-09-20T09:25:52;14.50;99.90
27276;DHT22;14772;47.398;8.080;2022-09-20T09:30:50;14.60;99.90
27276;DHT22;14772;47.398;8.080;2022-09-20T09:35:53;14.70;99.90
27276;DHT22;14772;47.398;8.080;2022-09-20T09:40:53;14.80;99.90
27276;DHT22;14772;47.398;8.080;2022-09-20T09:45:51;15.00;99.90
27276;DHT22;14772;47.398;8.080;2022-09-20T09:50:48;15.00;99.90
27276;DHT22;14772;47.398;8.080;2022-09-20T09:56:02;15.20;99.90
27276;DHT22;14772;47.398;8.080;2022-09-20T10:01:02;15.30;99.90
27276;DHT22;14772;47.398;8.080;2022-09-20T10:06:12;15.40;99.90
27276;DHT22;14772;47.398;8.080;2022-09-20T10:11:16;15.50;99.90
27276;DHT22;14772;47.398;8.080;2022-09-20T10:16:18;15.60;99.90
27276;DHT22;14772;47.398;8.080;2022-09-20T10:21:29;15.60;99.90
27276;DHT22;14772;47.398;8.080;2022-09-20T10:32:23;15.70;99.90
27276;DHT22;14772;47.398;8.080;2022-09-20T10:37:25;15.80;98.90
27276;DHT22;14772;47.398;8.080;2022-09-20T10:42:27;15.90;99.70
27276;DHT22;14772;47.398;8.080;2022-09-20T10:47:25;16.00;99.90
27276;DHT22;14772;47.398;8.080;2022-09-20T10:52:35;16.00;99.80
27276;DHT22;14772;47.398;8.080;2022-09-20T10:57:50;16.10;99.00
27276;DHT22;14772;47.398;8.080;2022-09-20T11:02:57;16.10;98.40
27276;DHT22;14772;47.398;8.080;2022-09-20T11:08:02;16.30;98.40
27276;DHT22;14772;47.398;8.080;2022-09-20T11:13:02;16.40;98.50
27276;DHT22;14772;47.398;8.080;2022-09-20T11:18:05;16.40;99.10
27276;DHT22;14772;47.398;8.080;2022-09-20T11:23:08;16.60;98.00
27276;DHT22;14772;47.398;8.080;2022-09-20T11:28:08;16.70;97.30
27276;DHT22;14772;47.398;8.080;2022-09-20T11:33:11;16.70;96.20
27276;DHT22;14772;47.398;8.080;2022-09-20T11:38:12;16.70;96.30
27276;DHT22;14772;47.398;8.080;2022-09-20T11:43:12;16.90;97.00
27276;DHT22;14772;47.398;8.080;2022-09-20T11:48:13;17.00;96.70
27276;DHT22;14772;47.398;8.080;2022-09-20T11:53:19;17.30;95.80
27276;DHT22;14772;47.398;8.080;2022-09-20T11:58:17;17.20;94.60
27276;DHT22;14772;47.398;8.080;2022-09-20T12:03:29;17.30;94.60
27276;DHT22;14772;47.398;8.080;2022-09-20T12:08:29;17.40;94.90
27276;DHT22;14772;47.398;8.080;2022-09-20T12:13:27;17.50;94.90
27276;DHT22;14772;47.398;8.080;2022-09-20T12:18:44;17.60;95.20
27276;DHT22;14772;47.398;8.080;2022-09-20T12:24:20;17.70;93.80
27276;DHT22;14772;47.398;8.080;2022-09-20T12:41:04;18.20;94.10
27276;DHT22;14772;47.398;8.080;2022-09-20T12:46:03;18.40;94.30
27276;DHT22;14772;47.398;8.080;2022-09-20T12:51:03;18.50;92.70
27276;DHT22;14772;47.398;8.080;2022-09-20T12:56:06;18.60;92.70
27276;DHT22;14772;47.398;8.080;2022-09-20T13:01:32;18.40;92.20
27276;DHT22;14772;47.398;8.080;2022-09-20T13:06:30;18.40;92.90
27276;DHT22;14772;47.398;8.080;2022-09-20T13:11:32;18.20;92.50
27276;DHT22;14772;47.398;8.080;2022-09-20T13:16:32;18.00;92.20
27276;DHT22;14772;47.398;8.080;2022-09-20T13:21:30;18.30;92.70
27276;DHT22;14772;47.398;8.080;2022-09-20T13:26:32;18.50;92.10
27276;DHT22;14772;47.398;8.080;2022-09-20T13:31:32;18.30;91.80
27276;DHT22;14772;47.398;8.080;2022-09-20T13:36:30;18.50;93.30
27276;DHT22;14772;47.398;8.080;2022-09-20T13:41:29;18.30;91.30
27276;DHT22;14772;47.398;8.080;2022-09-20T13:46:30;18.30;91.10
27276;DHT22;14772;47.398;8.080;2022-09-20T13:51:28;18.30;91.90
27276;DHT22;14772;47.398;8.080;2022-09-20T14:01:35;17.70;92.70
27276;DHT22;14772;47.398;8.080;2022-09-20T14:06:32;17.80;92.60
27276;DHT22;14772;47.398;8.080;2022-09-20T14:11:31;17.80;92.70
27276;DHT22;14772;47.398;8.080;2022-09-20T14:16:30;18.10;93.90
27276;DHT22;14772;47.398;8.080;2022-09-20T14:21:31;18.50;93.40
27276;DHT22;14772;47.398;8.080;2022-09-20T14:26:30;18.80;92.30
27276;DHT22;14772;47.398;8.080;2022-09-20T14:31:30;19.00;91.80
27276;DHT22;14772;47.398;8.080;2022-09-20T14:36:29;18.80;91.60
27276;DHT22;14772;47.398;8.080;2022-09-20T14:41:31;18.40;91.80
27276;DHT22;14772;47.398;8.080;2022-09-20T14:46:32;18.50;91.90
27276;DHT22;14772;47.398;8.080;2022-09-20T14:51:30;18.50;93.80
27276;DHT22;14772;47.398;8.080;2022-09-20T14:56:31;18.50;94.80
27276;DHT22;14772;47.398;8.080;2022-09-20T15:01:29;18.80;94.80
27276;DHT22;14772;47.398;8.080;2022-09-20T15:06:26;19.30;94.80
27276;DHT22;14772;47.398;8.080;2022-09-20T15:11:23;19.50;94.00
27276;DHT22;14772;47.398;8.080;2022-09-20T15:16:20;19.60;93.60
27276;DHT22;14772;47.398;8.080;2022-09-20T15:21:18;19.70;92.90
27276;DHT22;14772;47.398;8.080;2022-09-20T15:26:16;20.20;92.80
27276;DHT22;14772;47.398;8.080;2022-09-20T15:31:16;20.00;91.80
27276;DHT22;14772;47.398;8.080;2022-09-20T15:36:13;20.30;92.10
27276;DHT22;14772;47.398;8.080;2022-09-20T15:41:11;20.40;92.10
27276;DHT22;14772;47.398;8.080;2022-09-20T15:46:18;20.30;91.50
27276;DHT22;14772;47.398;8.080;2022-09-20T15:51:16;19.70;92.20
27276;DHT22;14772;47.398;8.080;2022-09-20T15:56:18;19.50;93.10
27276;DHT22;14772;47.398;8.080;2022-09-20T16:01:15;19.50;93.10
27276;DHT22;14772;47.398;8.080;2022-09-20T16:06:13;19.40;92.90
27276;DHT22;14772;47.398;8.080;2022-09-20T16:11:13;19.10;93.10
27276;DHT22;14772;47.398;8.080;2022-09-20T16:16:10;18.70;93.10
27276;DHT22;14772;47.398;8.080;2022-09-20T16:21:08;18.70;92.70
27276;DHT22;14772;47.398;8.080;2022-09-20T16:26:07;18.50;93.20
27276;DHT22;14772;47.398;8.080;2022-09-20T16:31:05;18.50;93.30
27276;DHT22;14772;47.398;8.080;2022-09-20T16:36:03;18.20;93.60
27276;DHT22;14772;47.398;8.080;2022-09-20T16:41:00;18.10;93.80
27276;DHT22;14772;47.398;8.080;2022-09-20T16:46:00;18.00;93.90
27276;DHT22;14772;47.398;8.080;2022-09-20T16:50:57;17.70;93.30
27276;DHT22;14772;47.398;8.080;2022-09-20T16:55:55;17.70;93.30
27276;DHT22;14772;47.398;8.080;2022-09-20T17:00:52;17.60;93.50
27276;DHT22;14772;47.398;8.080;2022-09-20T17:05:49;17.40;93.60
27276;DHT22;14772;47.398;8.080;2022-09-20T17:10:46;17.40;93.80
27276;DHT22;14772;47.398;8.080;2022-09-20T17:15:44;17.20;93.70
27276;DHT22;14772;47.398;8.080;2022-09-20T17:20:41;17.20;94.00
27276;DHT22;14772;47.398;8.080;2022-09-20T17:25:38;17.20;94.70
27276;DHT22;14772;47.398;8.080;2022-09-20T17:30:35;17.10;95.00
27276;DHT22;14772;47.398;8.080;2022-09-20T17:35:32;17.00;95.00
27276;DHT22;14772;47.398;8.080;2022-09-20T17:40:29;16.90;95.60
27276;DHT22;14772;47.398;8.080;2022-09-20T17:45:26;16.70;95.90
27276;DHT22;14772;47.398;8.080;2022-09-20T17:50:24;16.70;96.30
27276;DHT22;14772;47.398;8.080;2022-09-20T17:55:21;16.50;96.80
27276;DHT22;14772;47.398;8.080;2022-09-20T18:00:18;16.50;97.00
27276;DHT22;14772;47.398;8.080;2022-09-20T18:05:16;16.30;97.80
27276;DHT22;14772;47.398;8.080;2022-09-20T18:10:13;16.30;98.60
27276;DHT22;14772;47.398;8.080;2022-09-20T18:15:10;16.20;99.30
27276;DHT22;14772;47.398;8.080;2022-09-20T18:20:09;16.10;99.90
27276;DHT22;14772;47.398;8.080;2022-09-20T18:25:07;16.00;99.90
27276;DHT22;14772;47.398;8.080;2022-09-20T18:30:08;16.00;99.90
27276;DHT22;14772;47.398;8.080;2022-09-20T18:35:06;15.90;99.90
27276;DHT22;14772;47.398;8.080;2022-09-20T18:40:05;15.80;99.90
27276;DHT22;14772;47.398;8.080;2022-09-20T18:45:02;15.70;99.90
27276;DHT22;14772;47.398;8.080;2022-09-20T18:49:59;15.60;99.90
27276;DHT22;14772;47.398;8.080;2022-09-20T18:54:57;15.60;99.90
27276;DHT22;14772;47.398;8.080;2022-09-20T18:59:54;15.60;99.90
27276;DHT22;14772;47.398;8.080;2022-09-20T19:05:00;15.50;99.90
27276;DHT22;14772;47.398;8.080;2022-09-20T19:10:02;15.50;99.90
27276;DHT22;14772;47.398;8.080;2022-09-20T19:15:09;15.50;99.90
27276;DHT22;14772;47.398;8.080;2022-09-20T19:20:10;15.50;99.90
27276;DHT22;14772;47.398;8.080;2022-09-20T19:25:19;15.50;99.90
27276;DHT22;14772;47.398;8.080;2022-09-20T19:30:19;15.50;99.90
27276;DHT22;14772;47.398;8.080;2022-09-20T19:35:20;15.50;99.90
27276;DHT22;14772;47.398;8.080;2022-09-20T19:40:26;15.40;99.90
27276;DHT22;14772;47.398;8.080;2022-09-20T19:45:29;15.40;99.90
27276;DHT22;14772;47.398;8.080;2022-09-20T19:50:30;15.30;99.90
27276;DHT22;14772;47.398;8.080;2022-09-20T19:55:31;15.20;99.90
27276;DHT22;14772;47.398;8.080;2022-09-20T20:00:30;15.10;99.90
27276;DHT22;14772;47.398;8.080;2022-09-20T20:05:28;15.10;99.90
27276;DHT22;14772;47.398;8.080;2022-09-20T20:10:28;15.00;99.90
27276;DHT22;14772;47.398;8.080;2022-09-20T20:15:37;14.90;99.90
27276;DHT22;14772;47.398;8.080;2022-09-20T20:20:38;14.70;99.90
27276;DHT22;14772;47.398;8.080;2022-09-20T20:25:43;14.70;99.90
27276;DHT22;14772;47.398;8.080;2022-09-20T20:30:39;14.60;99.90
27276;DHT22;14772;47.398;8.080;2022-09-20T20:35:36;14.50;99.90
27276;DHT22;14772;47.398;8.080;2022-09-20T20:40:33;14.40;99.90
27276;DHT22;14772;47.398;8.080;2022-09-20T20:45:31;14.30;99.90
27276;DHT22;14772;47.398;8.080;2022-09-20T20:50:28;14.30;99.90
27276;DHT22;14772;47.398;8.080;2022-09-20T20:55:25;14.20;99.90
27276;DHT22;14772;47.398;8.080;2022-09-20T21:00:23;14.10;99.90
27276;DHT22;14772;47.398;8.080;2022-09-20T21:05:20;14.00;99.90
27276;DHT22;14772;47.398;8.080;2022-09-20T21:10:17;14.00;99.90
27276;DHT22;14772;47.398;8.080;2022-09-20T21:15:15;14.00;99.90
27276;DHT22;14772;47.398;8.080;2022-09-20T21:20:12;14.00;99.90
27276;DHT22;14772;47.398;8.080;2022-09-20T21:25:09;14.00;99.90
27276;DHT22;14772;47.398;8.080;2022-09-20T21:30:09;13.90;99.90
27276;DHT22;14772;47.398;8.080;2022-09-20T21:35:09;13.90;99.90
27276;DHT22;14772;47.398;8.080;2022-09-20T21:40:08;13.90;99.90
27276;DHT22;14772;47.398;8.080;2022-09-20T21:45:07;13.90;99.90
27276;DHT22;14772;47.398;8.080;2022-09-20T21:50:07;13.80;99.90
27276;DHT22;14772;47.398;8.080;2022-09-20T21:55:06;13.80;99.90
27276;DHT22;14772;47.398;8.080;2022-09-20T22:00:06;13.90;99.90
27276;DHT22;14772;47.398;8.080;2022-09-20T22:05:04;13.80;99.90
27276;DHT22;14772;47.398;8.080;2022-09-20T22:10:02;13.80;99.90
27276;DHT22;14772;47.398;8.080;2022-09-20T22:14:59;13.70;99.90
27276;DHT22;14772;47.398;8.080;2022-09-20T22:19:56;13.70;99.90
27276;DHT22;14772;47.398;8.080;2022-09-20T22:24:53;13.80;99.90
27276;DHT22;14772;47.398;8.080;2022-09-20T22:29:51;13.70;99.90
27276;DHT22;14772;47.398;8.080;2022-09-20T22:34:48;13.60;99.90
27276;DHT22;14772;47.398;8.080;2022-09-20T22:39:45;13.60;99.90
27276;DHT22;14772;47.398;8.080;2022-09-20T22:44:42;13.60;99.90
27276;DHT22;14772;47.398;8.080;2022-09-20T22:49:39;13.50;99.90
27276;DHT22;14772;47.398;8.080;2022-09-20T22:54:36;13.50;99.90
27276;DHT22;14772;47.398;8.080;2022-09-20T22:59:34;13.40;99.90
27276;DHT22;14772;47.398;8.080;2022-09-20T23:04:31;13.40;99.90
27276;DHT22;14772;47.398;8.080;2022-09-20T23:09:28;13.40;99.90
27276;DHT22;14772;47.398;8.080;2022-09-20T23:14:25;13.40;99.90
27276;DHT22;14772;47.398;8.080;2022-09-20T23:19:22;13.30;99.90
27276;DHT22;14772;47.398;8.080;2022-09-20T23:24:20;13.40;99.90
27276;DHT22;14772;47.398;8.080;2022-09-20T23:29:17;13.40;99.90
27276;DHT22;14772;47.398;8.080;2022-09-20T23:34:15;13.40;99.90
27276;DHT22;14772;47.398;8.080;2022-09-20T23:39:12;13.20;99.90
27276;DHT22;14772;47.398;8.080;2022-09-20T23:44:10;13.20;99.90
27276;DHT22;14772;47.398;8.080;2022-09-20T23:49:07;13.10;99.90
27276;DHT22;14772;47.398;8.080;2022-09-20T23:54:04;13.10;99.90
27276;DHT22;14772;47.398;8.080;2022-09-20T23:59:01;13.10;99.90
